sensor_id;sensor_type;location;lat;lon;timestamp;P1;durP1;ratioP1;P2;durP2;ratioP2
38851;SDS011;24605;50.092;9.182;2022-12-01T00:01:17;50.40;;;20.20;;
38851;SDS011;24605;50.092;9.182;2022-12-01T00:03:45;47.33;;;19.35;;
38851;SDS011;24605;50.092;9.182;2022-12-01T00:06:12;44.88;;;18.83;;
38851;SDS011;24605;50.092;9.182;2022-12-01T00:08:40;46.55;;;19.30;;
38851;SDS011;24605;50.092;9.182;2022-12-01T00:11:29;46.70;;;17.92;;
38851;SDS011;24605;50.092;9.182;2022-12-01T00:13:55;48.63;;;20.13;;
38851;SDS011;24605;50.092;9.182;2022-12-01T00:16:21;47.05;;;19.58;;
38851;SDS011;24605;50.092;9.182;2022-12-01T00:18:49;46.40;;;19.20;;
38851;SDS011;24605;50.092;9.182;2022-12-01T00:21:17;47.22;;;19.52;;
38851;SDS011;24605;50.092;9.182;2022-12-01T00:23:44;46.80;;;18.92;;
38851;SDS011;24605;50.092;9.182;2022-12-01T00:26:12;45.65;;;18.92;;
38851;SDS011;24605;50.092;9.182;2022-12-01T00:28:39;46.17;;;20.02;;
38851;SDS011;24605;50.092;9.182;2022-12-01T00:31:05;46.55;;;20.02;;
38851;SDS011;24605;50.092;9.182;2022-12-01T00:33:32;43.72;;;18.00;;
38851;SDS011;24605;50.092;9.182;2022-12-01T00:36:00;48.50;;;21.08;;
38851;SDS011;24605;50.092;9.182;2022-12-01T00:38:27;47.95;;;19.58;;
38851;SDS011;24605;50.092;9.182;2022-12-01T00:40:53;48.63;;;19.58;;
38851;SDS011;24605;50.092;9.182;2022-12-01T00:43:20;48.72;;;20.15;;
38851;SDS011;24605;50.092;9.182;2022-12-01T00:45:48;47.13;;;19.55;;
38851;SDS011;24605;50.092;9.182;2022-12-01T00:48:14;44.95;;;19.80;;
38851;SDS011;24605;50.092;9.182;2022-12-01T00:50:41;44.67;;;19.23;;
38851;SDS011;24605;50.092;9.182;2022-12-01T00:53:09;43.90;;;19.05;;
38851;SDS011;24605;50.092;9.182;2022-12-01T00:55:36;47.92;;;19.50;;
38851;SDS011;24605;50.092;9.182;2022-12-01T00:58:04;46.58;;;19.30;;
38851;SDS011;24605;50.092;9.182;2022-12-01T01:00:31;46.25;;;19.17;;
38851;SDS011;24605;50.092;9.182;2022-12-01T01:02:58;50.65;;;21.33;;
38851;SDS011;24605;50.092;9.182;2022-12-01T01:05:24;50.63;;;20.27;;
38851;SDS011;24605;50.092;9.182;2022-12-01T01:07:50;42.17;;;19.00;;
38851;SDS011;24605;50.092;9.182;2022-12-01T01:10:18;50.65;;;20.50;;
38851;SDS011;24605;50.092;9.182;2022-12-01T01:12:45;45.28;;;19.23;;
38851;SDS011;24605;50.092;9.182;2022-12-01T01:15:11;44.33;;;18.58;;
38851;SDS011;24605;50.092;9.182;2022-12-01T01:17:37;48.35;;;19.08;;
38851;SDS011;24605;50.092;9.182;2022-12-01T01:20:04;46.53;;;21.17;;
38851;SDS011;24605;50.092;9.182;2022-12-01T01:22:33;53.55;;;22.13;;
38851;SDS011;24605;50.092;9.182;2022-12-01T01:25:00;51.33;;;21.58;;
38851;SDS011;24605;50.092;9.182;2022-12-01T01:27:27;46.30;;;21.00;;
38851;SDS011;24605;50.092;9.182;2022-12-01T01:29:54;49.90;;;21.20;;
38851;SDS011;24605;50.092;9.182;2022-12-01T01:32:20;50.33;;;21.98;;
38851;SDS011;24605;50.092;9.182;2022-12-01T01:34:47;52.50;;;22.02;;
38851;SDS011;24605;50.092;9.182;2022-12-01T01:37:13;45.45;;;19.85;;
38851;SDS011;24605;50.092;9.182;2022-12-01T01:39:40;43.33;;;19.38;;
38851;SDS011;24605;50.092;9.182;2022-12-01T01:42:07;54.80;;;22.40;;
38851;SDS011;24605;50.092;9.182;2022-12-01T01:44:49;48.75;;;21.90;;
38851;SDS011;24605;50.092;9.182;2022-12-01T01:47:18;49.72;;;21.45;;
38851;SDS011;24605;50.092;9.182;2022-12-01T01:49:47;49.95;;;20.40;;
38851;SDS011;24605;50.092;9.182;2022-12-01T01:52:14;54.13;;;22.75;;
38851;SDS011;24605;50.092;9.182;2022-12-01T01:54:41;48.60;;;20.08;;
38851;SDS011;24605;50.092;9.182;2022-12-01T01:57:12;50.83;;;20.75;;
38851;SDS011;24605;50.092;9.182;2022-12-01T01:59:42;48.13;;;21.15;;
38851;SDS011;24605;50.092;9.182;2022-12-01T02:02:18;43.85;;;19.88;;
38851;SDS011;24605;50.092;9.182;2022-12-01T02:04:45;47.63;;;20.08;;
38851;SDS011;24605;50.092;9.182;2022-12-01T02:07:15;47.38;;;20.80;;
38851;SDS011;24605;50.092;9.182;2022-12-01T02:09:43;40.45;;;16.88;;
38851;SDS011;24605;50.092;9.182;2022-12-01T02:12:12;41.42;;;18.08;;
38851;SDS011;24605;50.092;9.182;2022-12-01T02:14:56;37.63;;;17.10;;
38851;SDS011;24605;50.092;9.182;2022-12-01T02:17:36;37.90;;;17.85;;
38851;SDS011;24605;50.092;9.182;2022-12-01T02:20:20;41.33;;;17.60;;
38851;SDS011;24605;50.092;9.182;2022-12-01T02:23:02;36.70;;;16.90;;
38851;SDS011;24605;50.092;9.182;2022-12-01T02:25:49;37.25;;;16.67;;
38851;SDS011;24605;50.092;9.182;2022-12-01T02:28:35;36.17;;;17.45;;
38851;SDS011;24605;50.092;9.182;2022-12-01T02:31:28;40.80;;;17.42;;
38851;SDS011;24605;50.092;9.182;2022-12-01T02:34:04;38.20;;;16.98;;
38851;SDS011;24605;50.092;9.182;2022-12-01T02:36:37;38.30;;;17.98;;
38851;SDS011;24605;50.092;9.182;2022-12-01T02:39:13;40.65;;;18.35;;
38851;SDS011;24605;50.092;9.182;2022-12-01T02:41:47;43.05;;;19.98;;
38851;SDS011;24605;50.092;9.182;2022-12-01T02:44:17;45.70;;;19.90;;
38851;SDS011;24605;50.092;9.182;2022-12-01T02:46:49;43.67;;;18.88;;
38851;SDS011;24605;50.092;9.182;2022-12-01T02:49:21;42.77;;;19.13;;
38851;SDS011;24605;50.092;9.182;2022-12-01T02:51:51;42.40;;;19.33;;
38851;SDS011;24605;50.092;9.182;2022-12-01T02:54:20;42.17;;;18.98;;
38851;SDS011;24605;50.092;9.182;2022-12-01T02:56:50;43.28;;;19.00;;
38851;SDS011;24605;50.092;9.182;2022-12-01T02:59:17;39.72;;;19.20;;
38851;SDS011;24605;50.092;9.182;2022-12-01T03:01:46;44.15;;;19.20;;
38851;SDS011;24605;50.092;9.182;2022-12-01T03:07:19;44.03;;;18.67;;
38851;SDS011;24605;50.092;9.182;2022-12-01T03:10:02;35.35;;;16.73;;
38851;SDS011;24605;50.092;9.182;2022-12-01T03:12:34;44.42;;;19.77;;
38851;SDS011;24605;50.092;9.182;2022-12-01T03:15:08;40.30;;;18.00;;
38851;SDS011;24605;50.092;9.182;2022-12-01T03:17:42;42.63;;;18.17;;
38851;SDS011;24605;50.092;9.182;2022-12-01T03:20:15;37.95;;;18.15;;
38851;SDS011;24605;50.092;9.182;2022-12-01T03:22:48;42.75;;;19.65;;
38851;SDS011;24605;50.092;9.182;2022-12-01T03:25:19;37.00;;;17.85;;
38851;SDS011;24605;50.092;9.182;2022-12-01T03:27:48;40.67;;;18.15;;
38851;SDS011;24605;50.092;9.182;2022-12-01T03:30:20;45.30;;;19.63;;
38851;SDS011;24605;50.092;9.182;2022-12-01T03:32:51;44.05;;;18.92;;
38851;SDS011;24605;50.092;9.182;2022-12-01T03:35:25;41.40;;;19.30;;
38851;SDS011;24605;50.092;9.182;2022-12-01T03:37:56;42.03;;;19.33;;
38851;SDS011;24605;50.092;9.182;2022-12-01T03:40:28;44.85;;;20.02;;
38851;SDS011;24605;50.092;9.182;2022-12-01T03:42:58;45.80;;;19.73;;
38851;SDS011;24605;50.092;9.182;2022-12-01T03:45:30;41.30;;;18.80;;
38851;SDS011;24605;50.092;9.182;2022-12-01T03:48:00;41.65;;;18.92;;
38851;SDS011;24605;50.092;9.182;2022-12-01T03:50:28;42.58;;;19.33;;
38851;SDS011;24605;50.092;9.182;2022-12-01T03:53:03;38.85;;;18.33;;
38851;SDS011;24605;50.092;9.182;2022-12-01T03:55:35;39.28;;;18.70;;
38851;SDS011;24605;50.092;9.182;2022-12-01T03:58:06;41.60;;;18.83;;
38851;SDS011;24605;50.092;9.182;2022-12-01T04:00:36;40.97;;;18.45;;
38851;SDS011;24605;50.092;9.182;2022-12-01T04:03:04;38.95;;;18.15;;
38851;SDS011;24605;50.092;9.182;2022-12-01T04:05:32;41.65;;;18.42;;
38851;SDS011;24605;50.092;9.182;2022-12-01T04:07:59;40.42;;;18.25;;
38851;SDS011;24605;50.092;9.182;2022-12-01T04:10:26;40.80;;;17.98;;
38851;SDS011;24605;50.092;9.182;2022-12-01T04:12:52;40.72;;;17.85;;
38851;SDS011;24605;50.092;9.182;2022-12-01T04:15:23;36.83;;;16.63;;
38851;SDS011;24605;50.092;9.182;2022-12-01T04:17:50;35.17;;;16.73;;
38851;SDS011;24605;50.092;9.182;2022-12-01T04:20:18;31.27;;;15.63;;
38851;SDS011;24605;50.092;9.182;2022-12-01T04:22:46;37.22;;;17.23;;
38851;SDS011;24605;50.092;9.182;2022-12-01T04:25:13;36.65;;;16.85;;
38851;SDS011;24605;50.092;9.182;2022-12-01T04:27:39;36.45;;;15.25;;
38851;SDS011;24605;50.092;9.182;2022-12-01T04:30:06;36.33;;;15.48;;
38851;SDS011;24605;50.092;9.182;2022-12-01T04:32:36;32.95;;;15.30;;
38851;SDS011;24605;50.092;9.182;2022-12-01T04:35:03;37.13;;;17.10;;
38851;SDS011;24605;50.092;9.182;2022-12-01T04:37:31;37.05;;;17.23;;
38851;SDS011;24605;50.092;9.182;2022-12-01T04:39:58;35.30;;;16.73;;
38851;SDS011;24605;50.092;9.182;2022-12-01T04:42:24;32.38;;;15.07;;
38851;SDS011;24605;50.092;9.182;2022-12-01T04:44:51;31.88;;;15.63;;
38851;SDS011;24605;50.092;9.182;2022-12-01T04:47:17;34.50;;;15.20;;
38851;SDS011;24605;50.092;9.182;2022-12-01T04:49:44;33.40;;;15.73;;
38851;SDS011;24605;50.092;9.182;2022-12-01T04:52:10;31.52;;;15.15;;
38851;SDS011;24605;50.092;9.182;2022-12-01T04:54:38;34.83;;;15.13;;
38851;SDS011;24605;50.092;9.182;2022-12-01T04:57:04;33.10;;;14.55;;
38851;SDS011;24605;50.092;9.182;2022-12-01T04:59:31;30.05;;;14.10;;
38851;SDS011;24605;50.092;9.182;2022-12-01T05:01:57;33.13;;;14.43;;
38851;SDS011;24605;50.092;9.182;2022-12-01T05:04:24;33.92;;;15.65;;
38851;SDS011;24605;50.092;9.182;2022-12-01T05:06:52;33.15;;;14.98;;
38851;SDS011;24605;50.092;9.182;2022-12-01T05:09:19;31.88;;;14.25;;
38851;SDS011;24605;50.092;9.182;2022-12-01T05:11:47;32.45;;;15.18;;
38851;SDS011;24605;50.092;9.182;2022-12-01T05:14:13;30.08;;;14.75;;
38851;SDS011;24605;50.092;9.182;2022-12-01T05:16:40;32.20;;;14.52;;
38851;SDS011;24605;50.092;9.182;2022-12-01T05:19:06;33.63;;;15.23;;
38851;SDS011;24605;50.092;9.182;2022-12-01T05:21:50;33.08;;;15.27;;
38851;SDS011;24605;50.092;9.182;2022-12-01T05:24:18;30.05;;;13.73;;
38851;SDS011;24605;50.092;9.182;2022-12-01T05:26:47;30.40;;;14.88;;
38851;SDS011;24605;50.092;9.182;2022-12-01T05:29:14;29.00;;;13.48;;
38851;SDS011;24605;50.092;9.182;2022-12-01T05:31:40;30.17;;;13.68;;
38851;SDS011;24605;50.092;9.182;2022-12-01T05:34:07;31.15;;;14.63;;
38851;SDS011;24605;50.092;9.182;2022-12-01T05:36:34;27.63;;;13.65;;
38851;SDS011;24605;50.092;9.182;2022-12-01T05:39:00;28.55;;;14.18;;
38851;SDS011;24605;50.092;9.182;2022-12-01T05:41:27;29.70;;;13.52;;
38851;SDS011;24605;50.092;9.182;2022-12-01T05:43:55;28.08;;;13.88;;
38851;SDS011;24605;50.092;9.182;2022-12-01T05:46:21;26.92;;;13.43;;
38851;SDS011;24605;50.092;9.182;2022-12-01T05:48:47;27.02;;;13.57;;
38851;SDS011;24605;50.092;9.182;2022-12-01T05:51:14;28.70;;;14.15;;
38851;SDS011;24605;50.092;9.182;2022-12-01T05:53:42;29.20;;;14.15;;
38851;SDS011;24605;50.092;9.182;2022-12-01T05:56:09;27.42;;;13.35;;
38851;SDS011;24605;50.092;9.182;2022-12-01T05:58:35;28.30;;;14.77;;
38851;SDS011;24605;50.092;9.182;2022-12-01T06:01:03;31.88;;;14.63;;
38851;SDS011;24605;50.092;9.182;2022-12-01T06:03:30;26.90;;;13.43;;
38851;SDS011;24605;50.092;9.182;2022-12-01T06:05:57;29.20;;;13.02;;
38851;SDS011;24605;50.092;9.182;2022-12-01T06:08:23;29.20;;;14.18;;
38851;SDS011;24605;50.092;9.182;2022-12-01T06:10:50;27.08;;;12.90;;
38851;SDS011;24605;50.092;9.182;2022-12-01T06:13:16;28.40;;;13.70;;
38851;SDS011;24605;50.092;9.182;2022-12-01T06:15:43;30.35;;;14.38;;
38851;SDS011;24605;50.092;9.182;2022-12-01T06:18:11;31.00;;;13.45;;
38851;SDS011;24605;50.092;9.182;2022-12-01T06:20:37;31.88;;;14.52;;
38851;SDS011;24605;50.092;9.182;2022-12-01T06:23:04;27.73;;;13.90;;
38851;SDS011;24605;50.092;9.182;2022-12-01T06:25:30;27.08;;;13.48;;
38851;SDS011;24605;50.092;9.182;2022-12-01T06:27:57;28.67;;;14.90;;
38851;SDS011;24605;50.092;9.182;2022-12-01T06:30:23;29.02;;;13.02;;
38851;SDS011;24605;50.092;9.182;2022-12-01T06:32:50;28.02;;;13.63;;
38851;SDS011;24605;50.092;9.182;2022-12-01T06:35:18;28.08;;;13.02;;
38851;SDS011;24605;50.092;9.182;2022-12-01T06:37:45;29.13;;;14.23;;
38851;SDS011;24605;50.092;9.182;2022-12-01T06:40:12;27.65;;;13.90;;
38851;SDS011;24605;50.092;9.182;2022-12-01T06:42:43;25.83;;;12.25;;
38851;SDS011;24605;50.092;9.182;2022-12-01T06:45:13;25.10;;;12.63;;
38851;SDS011;24605;50.092;9.182;2022-12-01T06:47:39;26.60;;;12.95;;
38851;SDS011;24605;50.092;9.182;2022-12-01T06:50:07;24.38;;;12.77;;
38851;SDS011;24605;50.092;9.182;2022-12-01T06:52:37;25.45;;;12.55;;
38851;SDS011;24605;50.092;9.182;2022-12-01T06:55:04;26.45;;;13.43;;
38851;SDS011;24605;50.092;9.182;2022-12-01T06:57:31;27.30;;;13.85;;
38851;SDS011;24605;50.092;9.182;2022-12-01T06:59:58;26.02;;;12.98;;
38851;SDS011;24605;50.092;9.182;2022-12-01T07:02:24;26.20;;;13.70;;
38851;SDS011;24605;50.092;9.182;2022-12-01T07:04:50;29.15;;;14.68;;
38851;SDS011;24605;50.092;9.182;2022-12-01T07:07:17;27.50;;;13.27;;
38851;SDS011;24605;50.092;9.182;2022-12-01T07:09:45;27.60;;;13.43;;
38851;SDS011;24605;50.092;9.182;2022-12-01T07:12:11;28.50;;;13.70;;
38851;SDS011;24605;50.092;9.182;2022-12-01T07:14:38;29.27;;;14.60;;
38851;SDS011;24605;50.092;9.182;2022-12-01T07:17:06;30.48;;;13.80;;
38851;SDS011;24605;50.092;9.182;2022-12-01T07:19:33;29.00;;;14.82;;
38851;SDS011;24605;50.092;9.182;2022-12-01T07:21:59;27.20;;;13.00;;
38851;SDS011;24605;50.092;9.182;2022-12-01T07:24:26;26.92;;;12.85;;
38851;SDS011;24605;50.092;9.182;2022-12-01T07:26:54;27.90;;;13.25;;
38851;SDS011;24605;50.092;9.182;2022-12-01T07:29:20;27.08;;;13.48;;
38851;SDS011;24605;50.092;9.182;2022-12-01T07:31:47;30.73;;;15.02;;
38851;SDS011;24605;50.092;9.182;2022-12-01T07:34:13;32.50;;;14.43;;
38851;SDS011;24605;50.092;9.182;2022-12-01T07:36:40;27.98;;;13.48;;
38851;SDS011;24605;50.092;9.182;2022-12-01T07:39:06;26.35;;;13.02;;
38851;SDS011;24605;50.092;9.182;2022-12-01T07:41:33;30.63;;;14.77;;
38851;SDS011;24605;50.092;9.182;2022-12-01T07:44:01;30.15;;;14.57;;
38851;SDS011;24605;50.092;9.182;2022-12-01T07:46:28;28.08;;;13.10;;
38851;SDS011;24605;50.092;9.182;2022-12-01T07:48:55;29.25;;;13.60;;
38851;SDS011;24605;50.092;9.182;2022-12-01T07:51:23;30.70;;;14.23;;
38851;SDS011;24605;50.092;9.182;2022-12-01T07:53:51;31.50;;;14.50;;
38851;SDS011;24605;50.092;9.182;2022-12-01T07:56:19;27.33;;;13.48;;
38851;SDS011;24605;50.092;9.182;2022-12-01T07:58:46;28.17;;;13.43;;
38851;SDS011;24605;50.092;9.182;2022-12-01T08:01:15;28.67;;;14.23;;
38851;SDS011;24605;50.092;9.182;2022-12-01T08:03:43;27.40;;;13.57;;
38851;SDS011;24605;50.092;9.182;2022-12-01T08:06:10;40.58;;;19.40;;
38851;SDS011;24605;50.092;9.182;2022-12-01T08:08:37;30.77;;;15.07;;
38851;SDS011;24605;50.092;9.182;2022-12-01T08:11:06;29.30;;;14.02;;
38851;SDS011;24605;50.092;9.182;2022-12-01T08:13:35;26.90;;;13.20;;
38851;SDS011;24605;50.092;9.182;2022-12-01T08:16:01;28.23;;;14.05;;
38851;SDS011;24605;50.092;9.182;2022-12-01T08:18:32;28.80;;;13.65;;
38851;SDS011;24605;50.092;9.182;2022-12-01T08:20:59;25.80;;;13.00;;
38851;SDS011;24605;50.092;9.182;2022-12-01T08:23:25;24.73;;;12.68;;
38851;SDS011;24605;50.092;9.182;2022-12-01T08:25:52;23.17;;;11.85;;
38851;SDS011;24605;50.092;9.182;2022-12-01T08:28:19;35.88;;;16.42;;
38851;SDS011;24605;50.092;9.182;2022-12-01T08:30:45;97.43;;;30.08;;
38851;SDS011;24605;50.092;9.182;2022-12-01T08:33:12;85.18;;;42.65;;
38851;SDS011;24605;50.092;9.182;2022-12-01T08:35:40;415.38;;;161.43;;
38851;SDS011;24605;50.092;9.182;2022-12-01T08:38:07;423.77;;;145.63;;
38851;SDS011;24605;50.092;9.182;2022-12-01T08:40:34;98.32;;;44.53;;
38851;SDS011;24605;50.092;9.182;2022-12-01T08:43:00;41.10;;;23.08;;
38851;SDS011;24605;50.092;9.182;2022-12-01T08:45:27;38.67;;;21.73;;
38851;SDS011;24605;50.092;9.182;2022-12-01T08:47:53;27.88;;;14.10;;
38851;SDS011;24605;50.092;9.182;2022-12-01T08:50:23;29.02;;;14.10;;
38851;SDS011;24605;50.092;9.182;2022-12-01T08:52:50;27.23;;;13.52;;
38851;SDS011;24605;50.092;9.182;2022-12-01T08:55:17;25.42;;;12.35;;
38851;SDS011;24605;50.092;9.182;2022-12-01T08:57:44;21.10;;;10.93;;
38851;SDS011;24605;50.092;9.182;2022-12-01T09:00:11;23.08;;;11.30;;
38851;SDS011;24605;50.092;9.182;2022-12-01T09:02:38;23.17;;;11.20;;
38851;SDS011;24605;50.092;9.182;2022-12-01T09:05:05;23.35;;;11.77;;
38851;SDS011;24605;50.092;9.182;2022-12-01T09:07:32;26.92;;;13.88;;
38851;SDS011;24605;50.092;9.182;2022-12-01T09:10:00;20.95;;;11.15;;
38851;SDS011;24605;50.092;9.182;2022-12-01T09:12:27;21.33;;;10.63;;
38851;SDS011;24605;50.092;9.182;2022-12-01T09:14:54;21.25;;;10.52;;
38851;SDS011;24605;50.092;9.182;2022-12-01T09:17:20;20.48;;;10.50;;
38851;SDS011;24605;50.092;9.182;2022-12-01T09:19:47;21.23;;;10.93;;
38851;SDS011;24605;50.092;9.182;2022-12-01T09:22:14;18.48;;;9.90;;
38851;SDS011;24605;50.092;9.182;2022-12-01T09:24:40;19.00;;;9.60;;
38851;SDS011;24605;50.092;9.182;2022-12-01T09:27:08;20.27;;;10.38;;
38851;SDS011;24605;50.092;9.182;2022-12-01T09:29:35;17.95;;;9.55;;
38851;SDS011;24605;50.092;9.182;2022-12-01T09:32:01;20.52;;;10.40;;
38851;SDS011;24605;50.092;9.182;2022-12-01T09:34:28;19.70;;;10.07;;
38851;SDS011;24605;50.092;9.182;2022-12-01T09:36:55;17.88;;;9.65;;
38851;SDS011;24605;50.092;9.182;2022-12-01T09:39:22;19.77;;;9.23;;
38851;SDS011;24605;50.092;9.182;2022-12-01T09:41:50;18.90;;;9.45;;
38851;SDS011;24605;50.092;9.182;2022-12-01T09:44:28;20.23;;;10.00;;
38851;SDS011;24605;50.092;9.182;2022-12-01T09:47:03;20.75;;;9.98;;
38851;SDS011;24605;50.092;9.182;2022-12-01T09:49:38;21.73;;;10.40;;
38851;SDS011;24605;50.092;9.182;2022-12-01T09:52:10;19.90;;;10.32;;
38851;SDS011;24605;50.092;9.182;2022-12-01T09:54:38;21.95;;;11.15;;
38851;SDS011;24605;50.092;9.182;2022-12-01T09:57:05;21.55;;;10.00;;
38851;SDS011;24605;50.092;9.182;2022-12-01T09:59:38;25.48;;;12.02;;
38851;SDS011;24605;50.092;9.182;2022-12-01T10:02:12;21.52;;;10.57;;
38851;SDS011;24605;50.092;9.182;2022-12-01T10:04:49;22.77;;;11.30;;
38851;SDS011;24605;50.092;9.182;2022-12-01T10:07:19;23.90;;;11.77;;
38851;SDS011;24605;50.092;9.182;2022-12-01T10:09:50;25.25;;;12.88;;
38851;SDS011;24605;50.092;9.182;2022-12-01T10:12:21;23.92;;;11.90;;
38851;SDS011;24605;50.092;9.182;2022-12-01T10:14:55;23.58;;;11.70;;
38851;SDS011;24605;50.092;9.182;2022-12-01T10:17:26;28.88;;;12.20;;
38851;SDS011;24605;50.092;9.182;2022-12-01T10:20:00;26.00;;;12.43;;
38851;SDS011;24605;50.092;9.182;2022-12-01T10:22:54;26.55;;;11.73;;
38851;SDS011;24605;50.092;9.182;2022-12-01T10:25:29;26.15;;;12.80;;
38851;SDS011;24605;50.092;9.182;2022-12-01T10:28:03;25.63;;;11.75;;
38851;SDS011;24605;50.092;9.182;2022-12-01T10:30:47;24.15;;;11.95;;
38851;SDS011;24605;50.092;9.182;2022-12-01T10:33:17;26.77;;;12.48;;
38851;SDS011;24605;50.092;9.182;2022-12-01T10:35:48;23.95;;;11.75;;
38851;SDS011;24605;50.092;9.182;2022-12-01T10:38:18;25.45;;;12.88;;
38851;SDS011;24605;50.092;9.182;2022-12-01T10:40:50;26.55;;;12.20;;
38851;SDS011;24605;50.092;9.182;2022-12-01T10:43:18;26.73;;;12.77;;
38851;SDS011;24605;50.092;9.182;2022-12-01T10:45:52;25.13;;;12.45;;
38851;SDS011;24605;50.092;9.182;2022-12-01T10:48:20;24.35;;;12.07;;
38851;SDS011;24605;50.092;9.182;2022-12-01T10:50:49;23.75;;;11.70;;
38851;SDS011;24605;50.092;9.182;2022-12-01T10:56:02;26.48;;;12.85;;
38851;SDS011;24605;50.092;9.182;2022-12-01T10:58:31;22.05;;;10.95;;
38851;SDS011;24605;50.092;9.182;2022-12-01T11:01:02;22.70;;;11.68;;
38851;SDS011;24605;50.092;9.182;2022-12-01T11:03:31;24.88;;;11.95;;
38851;SDS011;24605;50.092;9.182;2022-12-01T11:06:00;24.65;;;12.05;;
38851;SDS011;24605;50.092;9.182;2022-12-01T11:08:30;24.92;;;11.50;;
38851;SDS011;24605;50.092;9.182;2022-12-01T11:11:02;25.05;;;12.40;;
38851;SDS011;24605;50.092;9.182;2022-12-01T11:13:30;62.10;;;29.20;;
38851;SDS011;24605;50.092;9.182;2022-12-01T11:16:02;23.25;;;12.35;;
38851;SDS011;24605;50.092;9.182;2022-12-01T11:18:31;27.77;;;13.10;;
38851;SDS011;24605;50.092;9.182;2022-12-01T11:21:03;25.30;;;12.23;;
38851;SDS011;24605;50.092;9.182;2022-12-01T11:23:35;23.17;;;11.52;;
38851;SDS011;24605;50.092;9.182;2022-12-01T11:26:04;25.52;;;12.10;;
38851;SDS011;24605;50.092;9.182;2022-12-01T11:28:37;23.33;;;11.73;;
38851;SDS011;24605;50.092;9.182;2022-12-01T11:31:09;25.08;;;12.05;;
38851;SDS011;24605;50.092;9.182;2022-12-01T11:33:46;24.67;;;11.65;;
38851;SDS011;24605;50.092;9.182;2022-12-01T11:36:19;23.23;;;11.98;;
38851;SDS011;24605;50.092;9.182;2022-12-01T11:38:47;23.80;;;11.15;;
38851;SDS011;24605;50.092;9.182;2022-12-01T11:41:22;26.67;;;12.73;;
38851;SDS011;24605;50.092;9.182;2022-12-01T11:43:53;26.70;;;12.50;;
38851;SDS011;24605;50.092;9.182;2022-12-01T11:46:26;28.05;;;12.80;;
38851;SDS011;24605;50.092;9.182;2022-12-01T11:48:56;27.85;;;13.35;;
38851;SDS011;24605;50.092;9.182;2022-12-01T11:51:25;27.70;;;13.25;;
38851;SDS011;24605;50.092;9.182;2022-12-01T11:54:03;27.30;;;12.77;;
38851;SDS011;24605;50.092;9.182;2022-12-01T11:56:31;30.05;;;13.98;;
38851;SDS011;24605;50.092;9.182;2022-12-01T11:58:58;25.83;;;11.80;;
38851;SDS011;24605;50.092;9.182;2022-12-01T12:01:30;27.45;;;13.18;;
38851;SDS011;24605;50.092;9.182;2022-12-01T12:04:07;25.17;;;13.20;;
38851;SDS011;24605;50.092;9.182;2022-12-01T12:06:45;26.05;;;13.77;;
38851;SDS011;24605;50.092;9.182;2022-12-01T12:09:27;27.17;;;13.43;;
38851;SDS011;24605;50.092;9.182;2022-12-01T12:12:04;26.85;;;13.60;;
38851;SDS011;24605;50.092;9.182;2022-12-01T12:14:47;27.52;;;13.30;;
38851;SDS011;24605;50.092;9.182;2022-12-01T12:17:29;27.77;;;12.68;;
38851;SDS011;24605;50.092;9.182;2022-12-01T12:20:26;24.33;;;12.55;;
38851;SDS011;24605;50.092;9.182;2022-12-01T12:23:08;24.80;;;12.77;;
38851;SDS011;24605;50.092;9.182;2022-12-01T12:25:51;26.98;;;12.50;;
38851;SDS011;24605;50.092;9.182;2022-12-01T12:28:31;25.25;;;12.27;;
38851;SDS011;24605;50.092;9.182;2022-12-01T12:31:09;25.95;;;12.77;;
38851;SDS011;24605;50.092;9.182;2022-12-01T12:33:47;24.67;;;11.98;;
38851;SDS011;24605;50.092;9.182;2022-12-01T12:36:26;24.77;;;12.40;;
38851;SDS011;24605;50.092;9.182;2022-12-01T12:39:03;26.95;;;11.85;;
38851;SDS011;24605;50.092;9.182;2022-12-01T12:41:37;26.30;;;12.65;;
38851;SDS011;24605;50.092;9.182;2022-12-01T12:44:23;23.25;;;12.07;;
38851;SDS011;24605;50.092;9.182;2022-12-01T12:47:05;26.40;;;12.35;;
38851;SDS011;24605;50.092;9.182;2022-12-01T12:49:42;25.30;;;12.20;;
38851;SDS011;24605;50.092;9.182;2022-12-01T12:52:14;25.33;;;11.65;;
38851;SDS011;24605;50.092;9.182;2022-12-01T12:54:44;25.17;;;12.32;;
38851;SDS011;24605;50.092;9.182;2022-12-01T12:57:18;24.67;;;11.95;;
38851;SDS011;24605;50.092;9.182;2022-12-01T12:59:51;26.55;;;12.93;;
38851;SDS011;24605;50.092;9.182;2022-12-01T13:02:23;23.88;;;12.18;;
38851;SDS011;24605;50.092;9.182;2022-12-01T13:04:58;24.02;;;12.23;;
38851;SDS011;24605;50.092;9.182;2022-12-01T13:07:31;28.33;;;12.80;;
38851;SDS011;24605;50.092;9.182;2022-12-01T13:10:05;23.60;;;12.00;;
38851;SDS011;24605;50.092;9.182;2022-12-01T13:12:39;23.88;;;11.93;;
38851;SDS011;24605;50.092;9.182;2022-12-01T13:15:14;27.13;;;13.48;;
38851;SDS011;24605;50.092;9.182;2022-12-01T13:17:43;26.52;;;13.13;;
38851;SDS011;24605;50.092;9.182;2022-12-01T13:20:16;24.65;;;12.52;;
38851;SDS011;24605;50.092;9.182;2022-12-01T13:22:44;27.65;;;13.93;;
38851;SDS011;24605;50.092;9.182;2022-12-01T13:25:13;28.90;;;14.05;;
38851;SDS011;24605;50.092;9.182;2022-12-01T13:27:42;26.00;;;12.52;;
38851;SDS011;24605;50.092;9.182;2022-12-01T13:30:17;26.38;;;13.07;;
38851;SDS011;24605;50.092;9.182;2022-12-01T13:32:45;28.85;;;14.15;;
38851;SDS011;24605;50.092;9.182;2022-12-01T13:35:22;28.80;;;14.27;;
38851;SDS011;24605;50.092;9.182;2022-12-01T13:37:52;33.47;;;16.13;;
38851;SDS011;24605;50.092;9.182;2022-12-01T13:40:19;28.88;;;13.57;;
38851;SDS011;24605;50.092;9.182;2022-12-01T13:42:54;30.35;;;15.02;;
38851;SDS011;24605;50.092;9.182;2022-12-01T13:45:26;30.73;;;14.95;;
38851;SDS011;24605;50.092;9.182;2022-12-01T13:47:56;28.92;;;14.43;;
38851;SDS011;24605;50.092;9.182;2022-12-01T13:50:52;30.65;;;14.38;;
38851;SDS011;24605;50.092;9.182;2022-12-01T13:53:28;32.38;;;14.85;;
38851;SDS011;24605;50.092;9.182;2022-12-01T13:55:57;33.08;;;14.73;;
38851;SDS011;24605;50.092;9.182;2022-12-01T13:58:43;27.77;;;13.60;;
38851;SDS011;24605;50.092;9.182;2022-12-01T14:04:28;31.08;;;14.48;;
38851;SDS011;24605;50.092;9.182;2022-12-01T14:07:13;27.17;;;14.13;;
38851;SDS011;24605;50.092;9.182;2022-12-01T14:09:45;31.85;;;14.20;;
38851;SDS011;24605;50.092;9.182;2022-12-01T14:12:17;35.78;;;16.33;;
38851;SDS011;24605;50.092;9.182;2022-12-01T14:14:47;32.17;;;15.25;;
38851;SDS011;24605;50.092;9.182;2022-12-01T14:17:23;29.52;;;14.30;;
38851;SDS011;24605;50.092;9.182;2022-12-01T14:19:52;32.42;;;15.85;;
38851;SDS011;24605;50.092;9.182;2022-12-01T14:22:31;38.40;;;17.20;;
38851;SDS011;24605;50.092;9.182;2022-12-01T14:24:59;31.90;;;14.95;;
38851;SDS011;24605;50.092;9.182;2022-12-01T14:27:34;32.95;;;16.25;;
38851;SDS011;24605;50.092;9.182;2022-12-01T14:36:07;33.28;;;15.75;;
38851;SDS011;24605;50.092;9.182;2022-12-01T14:38:41;32.00;;;15.98;;
38851;SDS011;24605;50.092;9.182;2022-12-01T14:41:09;35.92;;;16.27;;
38851;SDS011;24605;50.092;9.182;2022-12-01T14:43:42;33.78;;;16.05;;
38851;SDS011;24605;50.092;9.182;2022-12-01T14:48:54;35.17;;;15.88;;
38851;SDS011;24605;50.092;9.182;2022-12-01T14:51:25;39.58;;;17.02;;
38851;SDS011;24605;50.092;9.182;2022-12-01T14:53:54;39.17;;;17.98;;
38851;SDS011;24605;50.092;9.182;2022-12-01T14:56:23;39.97;;;17.35;;